createdAt,value
2022-09-25T00:00:18.639Z,100457.00
2022-09-25T00:05:18.681Z,100458.00
2022-09-25T00:10:18.742Z,100464.00
2022-09-25T00:15:18.727Z,100466.00
2022-09-25T00:20:19.641Z,100468.00
2022-09-25T00:25:19.988Z,100466.00
2022-09-25T00:30:19.748Z,100460.00
2022-09-25T00:35:19.767Z,100457.00
2022-09-25T00:40:19.730Z,100455.00
2022-09-25T00:45:20.282Z,100453.00
2022-09-25T00:50:20.730Z,100455.00
2022-09-25T00:55:22.608Z,100458.00
2022-09-25T01:00:22.772Z,100462.00
2022-09-25T01:05:22.712Z,100464.00
2022-09-25T01:10:22.738Z,100464.00
2022-09-25T01:15:22.783Z,100464.00
2022-09-25T01:20:22.756Z,100468.00
2022-09-25T01:25:22.738Z,100468.00
2022-09-25T01:30:22.928Z,100468.00
2022-09-25T01:35:22.729Z,100468.00
2022-09-25T01:40:22.806Z,100470.00
2022-09-25T01:45:22.912Z,100470.00
2022-09-25T01:50:22.760Z,100472.00
2022-09-25T01:55:22.716Z,100474.00
2022-09-25T02:00:22.790Z,100474.00
2022-09-25T02:05:26.873Z,100474.00
2022-09-25T02:10:26.757Z,100474.00
2022-09-25T02:15:26.757Z,100472.00
2022-09-25T02:20:32.886Z,100472.00
2022-09-25T02:25:32.744Z,100474.00
2022-09-25T02:30:32.930Z,100474.00
2022-09-25T02:35:32.784Z,100478.00
2022-09-25T02:40:32.793Z,100482.00
2022-09-25T02:45:32.784Z,100480.00
2022-09-25T02:50:32.828Z,100482.00
2022-09-25T02:55:33.132Z,100476.00
2022-09-25T03:00:33.041Z,100472.00
2022-09-25T03:05:32.764Z,100470.00
2022-09-25T03:10:32.829Z,100472.00
2022-09-25T03:15:32.847Z,100476.00
2022-09-25T03:20:32.833Z,100478.00
2022-09-25T03:25:33.239Z,100484.00
2022-09-25T03:30:32.968Z,100490.00
2022-09-25T03:35:32.800Z,100492.00
2022-09-25T03:40:32.902Z,100492.00
2022-09-25T03:45:32.866Z,100494.00
2022-09-25T03:50:32.861Z,100496.00
2022-09-25T03:55:33.250Z,100492.00
2022-09-25T04:00:32.916Z,100490.00
2022-09-25T04:05:32.800Z,100492.00
2022-09-25T04:10:32.837Z,100492.00
2022-09-25T04:15:33.130Z,100490.00
2022-09-25T04:20:32.906Z,100490.00
2022-09-25T04:25:32.867Z,100494.00
2022-09-25T04:30:32.886Z,100492.00
2022-09-25T04:35:32.807Z,100490.00
2022-09-25T04:40:32.923Z,100486.00
2022-09-25T04:45:32.888Z,100484.00
2022-09-25T04:50:34.707Z,100482.00
2022-09-25T04:55:34.873Z,100490.00
2022-09-25T05:00:35.353Z,100492.00
2022-09-25T05:05:34.841Z,100498.00
2022-09-25T05:10:34.880Z,100500.00
2022-09-25T05:15:35.385Z,100500.00
2022-09-25T05:20:34.880Z,100500.00
2022-09-25T05:25:34.969Z,100498.00
2022-09-25T05:30:34.878Z,100498.00
2022-09-25T05:35:34.874Z,100498.00
2022-09-25T05:40:34.979Z,100494.00
2022-09-25T05:45:35.495Z,100492.00
2022-09-25T05:50:35.971Z,100494.00
2022-09-25T05:55:36.007Z,100496.00
2022-09-25T06:00:35.923Z,100498.00
2022-09-25T06:05:36.357Z,100504.00
2022-09-25T06:10:35.977Z,100504.00
2022-09-25T06:15:36.366Z,100504.00
2022-09-25T06:20:35.929Z,100507.00
2022-09-25T06:25:36.439Z,100511.00
2022-09-25T06:30:36.026Z,100515.00
2022-09-25T06:35:35.954Z,100519.00
2022-09-25T06:40:37.627Z,100531.00
2022-09-25T06:45:38.384Z,100533.00
2022-09-25T06:50:37.981Z,100535.00
2022-09-25T06:55:37.984Z,100545.00
2022-09-25T07:00:37.958Z,100543.00
2022-09-25T07:05:38.000Z,100543.00
2022-09-25T07:10:39.210Z,100549.00
2022-09-25T07:15:40.568Z,100555.00
2022-09-25T07:20:41.013Z,100555.00
2022-09-25T07:25:41.001Z,100559.00
2022-09-25T07:30:41.079Z,100561.00
2022-09-25T07:35:41.162Z,100565.00
2022-09-25T07:40:41.472Z,100567.00
2022-09-25T07:45:41.413Z,100569.00
2022-09-25T07:50:41.674Z,100567.00
2022-09-25T07:55:42.071Z,100565.00
2022-09-25T08:00:43.052Z,100565.00
2022-09-25T08:05:43.027Z,100563.00
2022-09-25T08:10:43.338Z,100563.00
2022-09-25T08:15:43.231Z,100567.00
2022-09-25T08:20:43.033Z,100567.00
2022-09-25T08:25:43.113Z,100567.00
2022-09-25T08:30:43.614Z,100565.00
2022-09-25T08:35:44.059Z,100563.00
2022-09-25T08:40:46.467Z,100561.00
2022-09-25T08:46:04.693Z,100565.00
2022-09-25T08:51:05.737Z,100563.00
2022-09-25T08:56:17.080Z,100561.00
2022-09-25T09:01:17.143Z,100561.00
2022-09-25T09:06:17.046Z,100561.00
2022-09-25T09:11:17.075Z,100565.00
2022-09-25T09:16:17.202Z,100557.00
2022-09-25T09:21:17.070Z,100559.00
2022-09-25T09:26:17.192Z,100553.00
2022-09-25T09:31:17.192Z,100545.00
2022-09-25T09:36:17.340Z,100535.00
2022-09-25T09:41:17.101Z,100529.00
2022-09-25T09:46:17.183Z,100523.00
2022-09-25T09:51:17.082Z,100517.00
2022-09-25T09:56:17.175Z,100515.00
2022-09-25T10:01:37.066Z,100507.00
2022-09-25T10:06:22.499Z,100507.00
2022-09-25T10:11:21.194Z,100504.00
2022-09-25T10:16:21.169Z,100502.00
2022-09-25T10:21:21.165Z,100502.00
2022-09-25T10:26:21.177Z,100502.00
2022-09-25T10:31:21.236Z,100498.00
2022-09-25T10:36:21.095Z,100498.00
2022-09-25T10:41:21.109Z,100500.00
2022-09-25T10:46:23.204Z,100498.00
2022-09-25T10:51:23.120Z,100496.00
2022-09-25T10:56:25.078Z,100498.00
2022-09-25T11:01:25.303Z,100496.00
2022-09-25T11:06:25.350Z,100496.00
2022-09-25T11:11:28.288Z,100496.00
2022-09-25T11:16:28.930Z,100494.00
2022-09-25T11:21:29.178Z,100486.00
2022-09-25T11:26:29.251Z,100484.00
2022-09-25T11:31:29.138Z,100484.00
2022-09-25T11:36:29.526Z,100482.00
2022-09-25T11:41:29.209Z,100480.00
2022-09-25T11:46:29.265Z,100474.00
2022-09-25T11:51:29.692Z,100474.00
2022-09-25T11:56:32.822Z,100472.00
2022-09-25T12:01:31.280Z,100470.00
2022-09-25T12:06:31.865Z,100468.00
2022-09-25T12:11:37.306Z,100466.00
2022-09-25T12:16:37.303Z,100466.00
2022-09-25T12:21:38.453Z,100464.00
2022-09-25T12:26:38.466Z,100460.00
2022-09-25T12:31:39.040Z,100457.00
2022-09-25T12:36:39.227Z,100451.00
2022-09-25T12:41:40.292Z,100451.00
2022-09-25T12:46:42.507Z,100445.00
2022-09-25T12:51:42.229Z,100435.00
2022-09-25T12:56:43.230Z,100427.00
2022-09-25T13:01:45.105Z,100417.00
2022-09-25T13:06:45.278Z,100417.00
2022-09-25T13:11:45.606Z,100417.00
2022-09-25T13:16:47.292Z,100413.00
2022-09-25T13:21:47.231Z,100410.00
2022-09-25T13:26:47.377Z,100408.00
2022-09-25T13:31:47.209Z,100402.00
2022-09-25T13:36:47.365Z,100392.00
2022-09-25T13:41:48.176Z,100388.00
2022-09-25T13:46:48.314Z,100388.00
2022-09-25T13:51:48.243Z,100382.00
2022-09-25T13:56:48.589Z,100382.00
2022-09-25T14:01:48.446Z,100380.00
2022-09-25T14:06:48.227Z,100378.00
2022-09-25T14:11:48.235Z,100380.00
2022-09-25T14:16:48.372Z,100380.00
2022-09-25T14:21:48.347Z,100372.00
2022-09-25T14:26:48.316Z,100372.00
2022-09-25T14:31:48.358Z,100370.00
2022-09-25T14:36:48.952Z,100370.00
2022-09-25T14:41:49.321Z,100363.00
2022-09-25T14:46:49.379Z,100363.00
2022-09-25T14:51:49.995Z,100353.00
2022-09-25T14:56:50.430Z,100349.00
2022-09-25T15:01:50.478Z,100349.00
2022-09-25T15:06:50.304Z,100347.00
2022-09-25T15:11:50.230Z,100345.00
2022-09-25T15:17:08.539Z,100341.00
2022-09-25T15:22:08.242Z,100343.00
2022-09-25T15:27:08.535Z,100337.00
2022-09-25T15:32:08.664Z,100333.00
2022-09-25T15:37:08.362Z,100331.00
2022-09-25T15:42:08.281Z,100329.00
2022-09-25T15:47:08.519Z,100329.00
2022-09-25T15:52:08.382Z,100329.00
2022-09-25T15:57:10.343Z,100321.00
2022-09-25T16:02:28.714Z,100321.00
2022-09-25T16:07:28.426Z,100321.00
2022-09-25T16:12:28.346Z,100321.00
2022-09-25T16:17:28.449Z,100323.00
2022-09-25T16:22:28.639Z,100325.00
2022-09-25T16:27:28.688Z,100331.00
2022-09-25T16:32:28.402Z,100335.00
2022-09-25T16:37:28.557Z,100331.00
2022-09-25T16:42:28.446Z,100331.00
2022-09-25T16:47:28.432Z,100335.00
2022-09-25T16:52:28.577Z,100335.00
2022-09-25T16:57:28.938Z,100333.00
2022-09-25T17:02:33.246Z,100333.00
2022-09-25T17:07:33.473Z,100335.00
2022-09-25T17:12:33.561Z,100333.00
2022-09-25T17:17:33.532Z,100335.00
2022-09-25T17:22:33.380Z,100333.00
2022-09-25T17:27:33.481Z,100337.00
2022-09-25T17:32:33.785Z,100335.00
2022-09-25T17:37:33.509Z,100337.00
2022-09-25T17:42:33.375Z,100335.00
2022-09-25T17:47:33.454Z,100335.00
2022-09-25T17:52:33.497Z,100339.00
2022-09-25T17:57:33.484Z,100343.00
2022-09-25T18:02:33.587Z,100345.00
2022-09-25T18:07:34.007Z,100345.00
2022-09-25T18:12:34.454Z,100341.00
2022-09-25T18:17:34.618Z,100341.00
2022-09-25T18:22:35.452Z,100341.00
2022-09-25T18:27:35.564Z,100339.00
2022-09-25T18:32:35.517Z,100337.00
2022-09-25T18:37:35.443Z,100333.00
2022-09-25T18:42:35.465Z,100339.00
2022-09-25T18:47:35.534Z,100339.00
2022-09-25T18:52:35.455Z,100339.00
2022-09-25T18:57:40.340Z,100337.00
2022-09-25T19:02:42.063Z,100337.00
2022-09-25T19:07:42.584Z,100333.00
2022-09-25T19:12:42.464Z,100329.00
2022-09-25T19:17:42.485Z,100331.00
2022-09-25T19:22:42.526Z,100329.00
2022-09-25T19:27:42.636Z,100325.00
2022-09-25T19:32:43.239Z,100327.00
2022-09-25T19:37:43.666Z,100329.00
2022-09-25T19:42:43.523Z,100325.00
2022-09-25T19:47:43.546Z,100319.00
2022-09-25T19:52:47.561Z,100321.00
2022-09-25T19:57:45.784Z,100319.00
2022-09-25T20:02:46.005Z,100311.00
2022-09-25T20:07:45.553Z,100309.00
2022-09-25T20:12:45.587Z,100304.00
2022-09-25T20:17:46.247Z,100302.00
2022-09-25T20:22:47.006Z,100302.00
2022-09-25T20:27:46.527Z,100300.00
2022-09-25T20:32:46.639Z,100298.00
2022-09-25T20:37:46.550Z,100300.00
2022-09-25T20:42:46.514Z,100296.00
2022-09-25T20:47:46.649Z,100292.00
2022-09-25T20:52:46.916Z,100290.00
2022-09-25T20:57:46.655Z,100288.00
2022-09-25T21:02:46.605Z,100286.00
2022-09-25T21:07:46.559Z,100276.00
2022-09-25T21:12:46.514Z,100274.00
2022-09-25T21:17:46.639Z,100276.00
2022-09-25T21:22:47.164Z,100272.00
2022-09-25T21:27:47.694Z,100272.00
2022-09-25T21:32:47.669Z,100268.00
2022-09-25T21:37:47.646Z,100264.00
2022-09-25T21:42:47.553Z,100260.00
2022-09-25T21:47:47.692Z,100260.00
2022-09-25T21:52:47.571Z,100260.00
2022-09-25T21:57:48.220Z,100252.00
2022-09-25T22:02:49.752Z,100246.00
2022-09-25T22:07:49.599Z,100244.00
2022-09-25T22:12:49.574Z,100244.00
2022-09-25T22:17:49.628Z,100246.00
2022-09-25T22:22:49.779Z,100248.00
2022-09-25T22:27:49.616Z,100238.00
2022-09-25T22:32:49.620Z,100236.00
2022-09-25T22:37:49.557Z,100232.00
2022-09-25T22:42:49.777Z,100229.00
2022-09-25T22:47:49.606Z,100221.00
2022-09-25T22:52:49.779Z,100215.00
2022-09-25T22:57:49.784Z,100211.00
2022-09-25T23:02:49.628Z,100203.00
2022-09-25T23:07:49.666Z,100201.00
2022-09-25T23:12:49.591Z,100201.00
2022-09-25T23:17:49.612Z,100191.00
2022-09-25T23:22:49.666Z,100189.00
2022-09-25T23:27:49.783Z,100185.00
2022-09-25T23:32:49.648Z,100178.00
2022-09-25T23:37:49.609Z,100168.00
2022-09-25T23:42:49.808Z,100164.00
2022-09-25T23:47:49.641Z,100160.00
2022-09-25T23:52:49.701Z,100154.00
2022-09-25T23:57:49.750Z,100150.00
